sensor_id;sensor_type;location;lat;lon;timestamp;P1;durP1;ratioP1;P2;durP2;ratioP2
51828;SDS011;37881;48.024;8.774;2023-02-28T00:00:49;12.70;;;6.63;;
51828;SDS011;37881;48.024;8.774;2023-02-28T00:03:16;13.90;;;6.50;;
51828;SDS011;37881;48.024;8.774;2023-02-28T00:05:43;15.27;;;7.10;;
51828;SDS011;37881;48.024;8.774;2023-02-28T00:08:09;13.85;;;7.43;;
51828;SDS011;37881;48.024;8.774;2023-02-28T00:10:36;13.53;;;6.60;;
51828;SDS011;37881;48.024;8.774;2023-02-28T00:13:04;15.10;;;6.90;;
51828;SDS011;37881;48.024;8.774;2023-02-28T00:15:32;13.75;;;6.70;;
51828;SDS011;37881;48.024;8.774;2023-02-28T00:18:00;13.38;;;6.65;;
51828;SDS011;37881;48.024;8.774;2023-02-28T00:20:26;13.80;;;7.00;;
51828;SDS011;37881;48.024;8.774;2023-02-28T00:22:53;12.07;;;6.70;;
51828;SDS011;37881;48.024;8.774;2023-02-28T00:25:21;13.85;;;6.90;;
51828;SDS011;37881;48.024;8.774;2023-02-28T00:27:50;15.35;;;7.97;;
51828;SDS011;37881;48.024;8.774;2023-02-28T00:30:21;12.95;;;7.10;;
51828;SDS011;37881;48.024;8.774;2023-02-28T00:32:49;12.35;;;6.50;;
51828;SDS011;37881;48.024;8.774;2023-02-28T00:35:16;13.27;;;7.53;;
51828;SDS011;37881;48.024;8.774;2023-02-28T00:37:43;14.20;;;8.15;;
51828;SDS011;37881;48.024;8.774;2023-02-28T00:40:10;14.90;;;7.43;;
51828;SDS011;37881;48.024;8.774;2023-02-28T00:42:38;13.63;;;7.93;;
51828;SDS011;37881;48.024;8.774;2023-02-28T00:45:06;13.85;;;7.10;;
51828;SDS011;37881;48.024;8.774;2023-02-28T00:47:34;14.67;;;7.47;;
51828;SDS011;37881;48.024;8.774;2023-02-28T00:50:02;14.20;;;7.93;;
51828;SDS011;37881;48.024;8.774;2023-02-28T00:52:29;14.18;;;7.07;;
51828;SDS011;37881;48.024;8.774;2023-02-28T00:54:56;13.25;;;6.63;;
51828;SDS011;37881;48.024;8.774;2023-02-28T00:57:23;13.35;;;6.85;;
51828;SDS011;37881;48.024;8.774;2023-02-28T00:59:49;13.43;;;6.90;;
51828;SDS011;37881;48.024;8.774;2023-02-28T01:02:16;13.27;;;6.35;;
51828;SDS011;37881;48.024;8.774;2023-02-28T01:04:44;13.25;;;7.03;;
51828;SDS011;37881;48.024;8.774;2023-02-28T01:07:11;13.95;;;6.85;;
51828;SDS011;37881;48.024;8.774;2023-02-28T01:09:37;15.73;;;8.18;;
51828;SDS011;37881;48.024;8.774;2023-02-28T01:12:04;13.80;;;6.83;;
51828;SDS011;37881;48.024;8.774;2023-02-28T01:14:31;13.98;;;6.72;;
51828;SDS011;37881;48.024;8.774;2023-02-28T01:16:57;13.10;;;7.07;;
51828;SDS011;37881;48.024;8.774;2023-02-28T01:19:24;14.75;;;7.28;;
51828;SDS011;37881;48.024;8.774;2023-02-28T01:21:51;12.52;;;6.65;;
51828;SDS011;37881;48.024;8.774;2023-02-28T01:24:18;13.13;;;6.50;;
51828;SDS011;37881;48.024;8.774;2023-02-28T01:26:45;36.63;;;15.88;;
51828;SDS011;37881;48.024;8.774;2023-02-28T01:29:11;17.40;;;8.25;;
51828;SDS011;37881;48.024;8.774;2023-02-28T01:31:38;14.57;;;7.90;;
51828;SDS011;37881;48.024;8.774;2023-02-28T01:34:05;13.77;;;7.53;;
51828;SDS011;37881;48.024;8.774;2023-02-28T01:36:32;13.10;;;7.20;;
51828;SDS011;37881;48.024;8.774;2023-02-28T01:38:58;15.15;;;7.30;;
51828;SDS011;37881;48.024;8.774;2023-02-28T01:41:26;13.23;;;7.43;;
51828;SDS011;37881;48.024;8.774;2023-02-28T01:46:34;14.20;;;7.50;;
51828;SDS011;37881;48.024;8.774;2023-02-28T01:49:04;14.87;;;9.37;;
51828;SDS011;37881;48.024;8.774;2023-02-28T01:51:37;14.07;;;7.20;;
51828;SDS011;37881;48.024;8.774;2023-02-28T01:54:18;14.30;;;6.55;;
51828;SDS011;37881;48.024;8.774;2023-02-28T01:56:51;13.35;;;7.38;;
51828;SDS011;37881;48.024;8.774;2023-02-28T01:59:44;24.23;;;11.20;;
51828;SDS011;37881;48.024;8.774;2023-02-28T02:02:16;14.23;;;6.90;;
51828;SDS011;37881;48.024;8.774;2023-02-28T02:04:46;13.75;;;7.30;;
51828;SDS011;37881;48.024;8.774;2023-02-28T02:07:20;12.95;;;6.75;;
51828;SDS011;37881;48.024;8.774;2023-02-28T02:09:48;12.52;;;6.90;;
51828;SDS011;37881;48.024;8.774;2023-02-28T02:12:19;13.52;;;7.03;;
51828;SDS011;37881;48.024;8.774;2023-02-28T02:15:00;12.83;;;6.57;;
51828;SDS011;37881;48.024;8.774;2023-02-28T02:17:32;14.60;;;7.30;;
51828;SDS011;37881;48.024;8.774;2023-02-28T02:22:49;14.07;;;6.72;;
51828;SDS011;37881;48.024;8.774;2023-02-28T02:28:22;14.90;;;7.47;;
51828;SDS011;37881;48.024;8.774;2023-02-28T02:39:48;15.02;;;7.20;;
51828;SDS011;37881;48.024;8.774;2023-02-28T02:42:23;28.73;;;12.93;;
51828;SDS011;37881;48.024;8.774;2023-02-28T02:45:03;15.38;;;7.68;;
51828;SDS011;37881;48.024;8.774;2023-02-28T02:47:36;14.23;;;7.22;;
51828;SDS011;37881;48.024;8.774;2023-02-28T02:50:05;14.00;;;7.47;;
51828;SDS011;37881;48.024;8.774;2023-02-28T02:52:39;14.52;;;7.50;;
51828;SDS011;37881;48.024;8.774;2023-02-28T02:55:11;13.87;;;7.23;;
51828;SDS011;37881;48.024;8.774;2023-02-28T03:00:09;15.13;;;9.57;;
51828;SDS011;37881;48.024;8.774;2023-02-28T03:02:36;14.35;;;7.53;;
51828;SDS011;37881;48.024;8.774;2023-02-28T03:05:07;15.15;;;7.75;;
51828;SDS011;37881;48.024;8.774;2023-02-28T03:07:40;13.33;;;6.87;;
51828;SDS011;37881;48.024;8.774;2023-02-28T03:10:29;13.68;;;6.47;;
51828;SDS011;37881;48.024;8.774;2023-02-28T03:23:42;15.27;;;8.50;;
51828;SDS011;37881;48.024;8.774;2023-02-28T03:26:31;13.48;;;7.57;;
51828;SDS011;37881;48.024;8.774;2023-02-28T03:29:13;15.25;;;7.70;;
51828;SDS011;37881;48.024;8.774;2023-02-28T03:31:50;15.65;;;7.55;;
51828;SDS011;37881;48.024;8.774;2023-02-28T03:34:38;15.37;;;9.63;;
51828;SDS011;37881;48.024;8.774;2023-02-28T03:37:14;15.77;;;8.52;;
51828;SDS011;37881;48.024;8.774;2023-02-28T03:39:47;16.88;;;9.38;;
51828;SDS011;37881;48.024;8.774;2023-02-28T03:42:23;16.92;;;8.18;;
51828;SDS011;37881;48.024;8.774;2023-02-28T03:44:55;15.55;;;7.65;;
51828;SDS011;37881;48.024;8.774;2023-02-28T03:50:00;14.77;;;8.30;;
51828;SDS011;37881;48.024;8.774;2023-02-28T03:52:34;17.70;;;8.57;;
51828;SDS011;37881;48.024;8.774;2023-02-28T03:55:06;15.25;;;7.85;;
51828;SDS011;37881;48.024;8.774;2023-02-28T03:57:48;15.60;;;8.00;;
51828;SDS011;37881;48.024;8.774;2023-02-28T04:00:39;16.70;;;8.20;;
51828;SDS011;37881;48.024;8.774;2023-02-28T04:03:11;15.35;;;7.68;;
51828;SDS011;37881;48.024;8.774;2023-02-28T04:05:48;17.02;;;8.93;;
51828;SDS011;37881;48.024;8.774;2023-02-28T04:08:18;15.32;;;7.65;;
51828;SDS011;37881;48.024;8.774;2023-02-28T04:10:51;17.27;;;9.52;;
51828;SDS011;37881;48.024;8.774;2023-02-28T04:13:23;18.03;;;9.80;;
51828;SDS011;37881;48.024;8.774;2023-02-28T04:15:49;17.58;;;9.55;;
51828;SDS011;37881;48.024;8.774;2023-02-28T04:18:16;16.67;;;8.35;;
51828;SDS011;37881;48.024;8.774;2023-02-28T04:20:43;20.60;;;9.10;;
51828;SDS011;37881;48.024;8.774;2023-02-28T04:23:10;18.23;;;9.38;;
51828;SDS011;37881;48.024;8.774;2023-02-28T04:25:36;16.57;;;8.70;;
51828;SDS011;37881;48.024;8.774;2023-02-28T04:28:03;17.98;;;8.38;;
51828;SDS011;37881;48.024;8.774;2023-02-28T04:30:30;18.88;;;9.15;;
51828;SDS011;37881;48.024;8.774;2023-02-28T04:32:59;19.55;;;9.27;;
51828;SDS011;37881;48.024;8.774;2023-02-28T04:35:26;20.80;;;9.40;;
51828;SDS011;37881;48.024;8.774;2023-02-28T04:37:53;20.47;;;10.10;;
51828;SDS011;37881;48.024;8.774;2023-02-28T04:40:20;17.35;;;8.75;;
51828;SDS011;37881;48.024;8.774;2023-02-28T04:42:46;16.02;;;8.32;;
51828;SDS011;37881;48.024;8.774;2023-02-28T04:45:13;17.25;;;8.82;;
51828;SDS011;37881;48.024;8.774;2023-02-28T04:47:40;16.25;;;9.73;;
51828;SDS011;37881;48.024;8.774;2023-02-28T04:50:06;21.10;;;10.87;;
51828;SDS011;37881;48.024;8.774;2023-02-28T04:52:33;22.67;;;10.70;;
51828;SDS011;37881;48.024;8.774;2023-02-28T04:55:00;17.77;;;8.45;;
51828;SDS011;37881;48.024;8.774;2023-02-28T04:57:28;16.58;;;8.20;;
51828;SDS011;37881;48.024;8.774;2023-02-28T04:59:54;18.13;;;8.77;;
51828;SDS011;37881;48.024;8.774;2023-02-28T05:02:21;18.33;;;9.13;;
51828;SDS011;37881;48.024;8.774;2023-02-28T05:04:48;14.55;;;8.00;;
51828;SDS011;37881;48.024;8.774;2023-02-28T05:07:14;18.65;;;9.77;;
51828;SDS011;37881;48.024;8.774;2023-02-28T05:09:41;18.08;;;9.27;;
51828;SDS011;37881;48.024;8.774;2023-02-28T05:12:08;16.98;;;8.50;;
51828;SDS011;37881;48.024;8.774;2023-02-28T05:14:35;16.50;;;8.07;;
51828;SDS011;37881;48.024;8.774;2023-02-28T05:17:02;18.20;;;8.52;;
51828;SDS011;37881;48.024;8.774;2023-02-28T05:19:29;19.17;;;9.95;;
51828;SDS011;37881;48.024;8.774;2023-02-28T05:21:56;15.60;;;8.20;;
51828;SDS011;37881;48.024;8.774;2023-02-28T05:24:23;17.50;;;8.40;;
51828;SDS011;37881;48.024;8.774;2023-02-28T05:26:50;17.10;;;8.87;;
51828;SDS011;37881;48.024;8.774;2023-02-28T05:29:19;17.90;;;9.33;;
51828;SDS011;37881;48.024;8.774;2023-02-28T05:31:46;17.92;;;8.55;;
51828;SDS011;37881;48.024;8.774;2023-02-28T05:34:13;16.67;;;8.77;;
51828;SDS011;37881;48.024;8.774;2023-02-28T05:36:42;18.00;;;8.80;;
51828;SDS011;37881;48.024;8.774;2023-02-28T05:39:09;18.27;;;9.50;;
51828;SDS011;37881;48.024;8.774;2023-02-28T05:41:40;16.88;;;8.32;;
51828;SDS011;37881;48.024;8.774;2023-02-28T05:44:08;18.17;;;9.10;;
51828;SDS011;37881;48.024;8.774;2023-02-28T05:46:35;18.30;;;9.60;;
51828;SDS011;37881;48.024;8.774;2023-02-28T05:49:02;16.15;;;8.48;;
51828;SDS011;37881;48.024;8.774;2023-02-28T05:51:30;16.77;;;8.33;;
51828;SDS011;37881;48.024;8.774;2023-02-28T05:54:00;18.17;;;9.13;;
51828;SDS011;37881;48.024;8.774;2023-02-28T05:56:27;17.63;;;8.82;;
51828;SDS011;37881;48.024;8.774;2023-02-28T05:58:55;19.08;;;9.23;;
51828;SDS011;37881;48.024;8.774;2023-02-28T06:01:23;17.80;;;9.43;;
51828;SDS011;37881;48.024;8.774;2023-02-28T06:04:01;18.83;;;9.83;;
51828;SDS011;37881;48.024;8.774;2023-02-28T06:06:28;18.75;;;8.90;;
51828;SDS011;37881;48.024;8.774;2023-02-28T06:09:05;20.05;;;10.43;;
51828;SDS011;37881;48.024;8.774;2023-02-28T06:11:32;18.60;;;8.50;;
51828;SDS011;37881;48.024;8.774;2023-02-28T06:14:00;21.58;;;11.85;;
51828;SDS011;37881;48.024;8.774;2023-02-28T06:16:27;19.00;;;9.13;;
51828;SDS011;37881;48.024;8.774;2023-02-28T06:18:59;18.42;;;9.02;;
51828;SDS011;37881;48.024;8.774;2023-02-28T06:21:27;20.98;;;10.30;;
51828;SDS011;37881;48.024;8.774;2023-02-28T06:23:56;18.45;;;11.27;;
51828;SDS011;37881;48.024;8.774;2023-02-28T06:26:24;17.35;;;8.80;;
51828;SDS011;37881;48.024;8.774;2023-02-28T06:28:51;17.47;;;9.00;;
51828;SDS011;37881;48.024;8.774;2023-02-28T06:31:18;20.70;;;9.70;;
51828;SDS011;37881;48.024;8.774;2023-02-28T06:33:45;19.15;;;10.23;;
51828;SDS011;37881;48.024;8.774;2023-02-28T06:36:12;17.80;;;9.60;;
51828;SDS011;37881;48.024;8.774;2023-02-28T06:38:40;19.88;;;9.70;;
51828;SDS011;37881;48.024;8.774;2023-02-28T06:41:07;17.87;;;8.43;;
51828;SDS011;37881;48.024;8.774;2023-02-28T06:43:35;16.88;;;9.15;;
51828;SDS011;37881;48.024;8.774;2023-02-28T06:46:05;20.70;;;9.80;;
51828;SDS011;37881;48.024;8.774;2023-02-28T06:48:34;18.50;;;9.40;;
51828;SDS011;37881;48.024;8.774;2023-02-28T06:51:05;18.70;;;9.45;;
51828;SDS011;37881;48.024;8.774;2023-02-28T06:53:34;17.00;;;8.60;;
51828;SDS011;37881;48.024;8.774;2023-02-28T06:56:06;18.75;;;9.18;;
51828;SDS011;37881;48.024;8.774;2023-02-28T06:58:34;19.27;;;10.10;;
51828;SDS011;37881;48.024;8.774;2023-02-28T07:01:01;19.70;;;9.73;;
51828;SDS011;37881;48.024;8.774;2023-02-28T07:03:28;19.20;;;9.85;;
51828;SDS011;37881;48.024;8.774;2023-02-28T07:05:58;17.93;;;9.33;;
51828;SDS011;37881;48.024;8.774;2023-02-28T07:08:25;19.33;;;8.77;;
51828;SDS011;37881;48.024;8.774;2023-02-28T07:10:53;17.42;;;9.15;;
51828;SDS011;37881;48.024;8.774;2023-02-28T07:13:21;18.13;;;8.63;;
51828;SDS011;37881;48.024;8.774;2023-02-28T07:18:25;20.40;;;10.73;;
51828;SDS011;37881;48.024;8.774;2023-02-28T07:20:53;18.30;;;8.63;;
51828;SDS011;37881;48.024;8.774;2023-02-28T07:23:20;18.67;;;8.82;;
51828;SDS011;37881;48.024;8.774;2023-02-28T07:25:47;18.17;;;8.95;;
51828;SDS011;37881;48.024;8.774;2023-02-28T07:28:15;17.15;;;9.27;;
51828;SDS011;37881;48.024;8.774;2023-02-28T07:30:42;18.13;;;8.63;;
51828;SDS011;37881;48.024;8.774;2023-02-28T07:33:08;17.77;;;8.90;;
51828;SDS011;37881;48.024;8.774;2023-02-28T07:35:35;19.25;;;9.70;;
51828;SDS011;37881;48.024;8.774;2023-02-28T07:38:02;18.75;;;8.90;;
51828;SDS011;37881;48.024;8.774;2023-02-28T07:40:30;18.58;;;9.48;;
51828;SDS011;37881;48.024;8.774;2023-02-28T07:42:56;18.80;;;9.00;;
51828;SDS011;37881;48.024;8.774;2023-02-28T07:45:26;17.83;;;8.40;;
51828;SDS011;37881;48.024;8.774;2023-02-28T07:47:55;19.27;;;9.30;;
51828;SDS011;37881;48.024;8.774;2023-02-28T07:50:22;18.20;;;8.90;;
51828;SDS011;37881;48.024;8.774;2023-02-28T07:52:51;18.90;;;9.82;;
51828;SDS011;37881;48.024;8.774;2023-02-28T07:55:18;17.70;;;8.50;;
51828;SDS011;37881;48.024;8.774;2023-02-28T07:57:44;20.05;;;11.05;;
51828;SDS011;37881;48.024;8.774;2023-02-28T08:00:11;19.83;;;9.65;;
51828;SDS011;37881;48.024;8.774;2023-02-28T08:02:39;19.20;;;9.55;;
51828;SDS011;37881;48.024;8.774;2023-02-28T08:05:06;20.27;;;9.40;;
51828;SDS011;37881;48.024;8.774;2023-02-28T08:07:33;19.03;;;9.07;;
51828;SDS011;37881;48.024;8.774;2023-02-28T08:10:00;20.63;;;9.90;;
51828;SDS011;37881;48.024;8.774;2023-02-28T08:12:27;19.10;;;11.13;;
51828;SDS011;37881;48.024;8.774;2023-02-28T08:14:54;20.15;;;9.73;;
51828;SDS011;37881;48.024;8.774;2023-02-28T08:17:20;19.60;;;9.50;;
51828;SDS011;37881;48.024;8.774;2023-02-28T08:19:47;18.60;;;8.60;;
51828;SDS011;37881;48.024;8.774;2023-02-28T08:22:14;17.02;;;8.90;;
51828;SDS011;37881;48.024;8.774;2023-02-28T08:24:41;21.73;;;10.10;;
51828;SDS011;37881;48.024;8.774;2023-02-28T08:27:09;26.38;;;10.95;;
51828;SDS011;37881;48.024;8.774;2023-02-28T08:29:36;21.40;;;10.52;;
51828;SDS011;37881;48.024;8.774;2023-02-28T08:32:04;21.50;;;9.10;;
51828;SDS011;37881;48.024;8.774;2023-02-28T08:34:45;18.73;;;9.20;;
51828;SDS011;37881;48.024;8.774;2023-02-28T08:37:13;20.23;;;10.15;;
51828;SDS011;37881;48.024;8.774;2023-02-28T08:39:40;23.08;;;10.00;;
51828;SDS011;37881;48.024;8.774;2023-02-28T08:42:07;21.30;;;10.38;;
51828;SDS011;37881;48.024;8.774;2023-02-28T08:44:33;20.40;;;9.60;;
51828;SDS011;37881;48.024;8.774;2023-02-28T08:47:00;41.58;;;10.68;;
51828;SDS011;37881;48.024;8.774;2023-02-28T08:49:27;21.55;;;9.65;;
51828;SDS011;37881;48.024;8.774;2023-02-28T08:51:54;22.92;;;10.27;;
51828;SDS011;37881;48.024;8.774;2023-02-28T08:54:23;18.10;;;8.95;;
51828;SDS011;37881;48.024;8.774;2023-02-28T08:56:50;19.97;;;9.50;;
51828;SDS011;37881;48.024;8.774;2023-02-28T08:59:17;25.73;;;9.48;;
51828;SDS011;37881;48.024;8.774;2023-02-28T09:01:44;22.88;;;9.48;;
51828;SDS011;37881;48.024;8.774;2023-02-28T09:04:10;21.77;;;9.50;;
51828;SDS011;37881;48.024;8.774;2023-02-28T09:06:42;19.75;;;10.85;;
51828;SDS011;37881;48.024;8.774;2023-02-28T09:09:10;20.87;;;10.30;;
51828;SDS011;37881;48.024;8.774;2023-02-28T09:11:37;24.88;;;11.77;;
51828;SDS011;37881;48.024;8.774;2023-02-28T09:14:04;19.13;;;10.70;;
51828;SDS011;37881;48.024;8.774;2023-02-28T09:16:31;21.73;;;10.55;;
51828;SDS011;37881;48.024;8.774;2023-02-28T09:18:59;21.88;;;10.43;;
51828;SDS011;37881;48.024;8.774;2023-02-28T09:21:26;22.20;;;10.77;;
51828;SDS011;37881;48.024;8.774;2023-02-28T09:23:53;22.95;;;10.52;;
51828;SDS011;37881;48.024;8.774;2023-02-28T09:26:21;20.23;;;9.73;;
51828;SDS011;37881;48.024;8.774;2023-02-28T09:28:51;29.30;;;10.75;;
51828;SDS011;37881;48.024;8.774;2023-02-28T09:31:21;23.00;;;12.32;;
51828;SDS011;37881;48.024;8.774;2023-02-28T09:33:51;20.90;;;10.10;;
51828;SDS011;37881;48.024;8.774;2023-02-28T09:36:19;35.20;;;10.55;;
51828;SDS011;37881;48.024;8.774;2023-02-28T09:38:48;22.52;;;10.85;;
51828;SDS011;37881;48.024;8.774;2023-02-28T09:41:19;21.85;;;11.73;;
51828;SDS011;37881;48.024;8.774;2023-02-28T09:43:49;23.27;;;10.55;;
51828;SDS011;37881;48.024;8.774;2023-02-28T09:46:26;21.90;;;10.20;;
51828;SDS011;37881;48.024;8.774;2023-02-28T09:48:53;28.38;;;10.10;;
51828;SDS011;37881;48.024;8.774;2023-02-28T09:51:27;22.35;;;10.10;;
51828;SDS011;37881;48.024;8.774;2023-02-28T09:53:59;19.45;;;10.10;;
51828;SDS011;37881;48.024;8.774;2023-02-28T09:56:48;19.83;;;10.30;;
51828;SDS011;37881;48.024;8.774;2023-02-28T09:59:40;19.70;;;10.37;;
51828;SDS011;37881;48.024;8.774;2023-02-28T10:05:27;25.02;;;10.43;;
51828;SDS011;37881;48.024;8.774;2023-02-28T10:10:49;24.73;;;11.27;;
51828;SDS011;37881;48.024;8.774;2023-02-28T10:16:30;35.85;;;10.98;;
51828;SDS011;37881;48.024;8.774;2023-02-28T10:19:03;25.80;;;11.48;;
51828;SDS011;37881;48.024;8.774;2023-02-28T10:21:38;31.95;;;11.32;;
51828;SDS011;37881;48.024;8.774;2023-02-28T10:27:01;22.47;;;10.47;;
51828;SDS011;37881;48.024;8.774;2023-02-28T10:29:36;27.90;;;12.45;;
51828;SDS011;37881;48.024;8.774;2023-02-28T10:32:08;26.98;;;11.00;;
51828;SDS011;37881;48.024;8.774;2023-02-28T10:34:37;23.63;;;11.13;;
51828;SDS011;37881;48.024;8.774;2023-02-28T10:37:04;38.95;;;11.98;;
51828;SDS011;37881;48.024;8.774;2023-02-28T10:39:35;33.10;;;13.20;;
51828;SDS011;37881;48.024;8.774;2023-02-28T10:42:16;25.92;;;13.52;;
51828;SDS011;37881;48.024;8.774;2023-02-28T10:44:46;22.77;;;11.27;;
51828;SDS011;37881;48.024;8.774;2023-02-28T10:47:18;26.02;;;14.10;;
51828;SDS011;37881;48.024;8.774;2023-02-28T10:49:49;22.67;;;11.30;;
51828;SDS011;37881;48.024;8.774;2023-02-28T10:52:37;23.43;;;11.63;;
51828;SDS011;37881;48.024;8.774;2023-02-28T10:55:13;23.55;;;11.30;;
51828;SDS011;37881;48.024;8.774;2023-02-28T10:57:51;34.67;;;12.70;;
51828;SDS011;37881;48.024;8.774;2023-02-28T11:00:22;30.30;;;10.63;;
51828;SDS011;37881;48.024;8.774;2023-02-28T11:02:51;22.00;;;10.65;;
51828;SDS011;37881;48.024;8.774;2023-02-28T11:08:05;22.27;;;10.50;;
51828;SDS011;37881;48.024;8.774;2023-02-28T11:10:37;29.00;;;11.65;;
51828;SDS011;37881;48.024;8.774;2023-02-28T11:13:04;24.77;;;11.70;;
51828;SDS011;37881;48.024;8.774;2023-02-28T11:15:34;31.48;;;12.05;;
51828;SDS011;37881;48.024;8.774;2023-02-28T11:18:05;23.43;;;11.30;;
51828;SDS011;37881;48.024;8.774;2023-02-28T11:20:48;21.88;;;10.82;;
51828;SDS011;37881;48.024;8.774;2023-02-28T11:23:17;25.10;;;10.60;;
51828;SDS011;37881;48.024;8.774;2023-02-28T11:25:47;23.20;;;11.57;;
51828;SDS011;37881;48.024;8.774;2023-02-28T11:28:24;23.15;;;10.50;;
51828;SDS011;37881;48.024;8.774;2023-02-28T11:31:17;40.33;;;12.20;;
51828;SDS011;37881;48.024;8.774;2023-02-28T11:38:51;21.95;;;11.35;;
51828;SDS011;37881;48.024;8.774;2023-02-28T11:41:29;25.50;;;11.77;;
51828;SDS011;37881;48.024;8.774;2023-02-28T11:47:20;23.98;;;12.13;;
51828;SDS011;37881;48.024;8.774;2023-02-28T11:55:33;24.02;;;12.10;;
51828;SDS011;37881;48.024;8.774;2023-02-28T12:03:43;26.52;;;12.98;;
51828;SDS011;37881;48.024;8.774;2023-02-28T12:08:49;28.77;;;14.38;;
51828;SDS011;37881;48.024;8.774;2023-02-28T12:14:23;25.10;;;11.82;;
51828;SDS011;37881;48.024;8.774;2023-02-28T12:22:22;26.80;;;13.38;;
51828;SDS011;37881;48.024;8.774;2023-02-28T12:27:29;26.67;;;13.18;;
51828;SDS011;37881;48.024;8.774;2023-02-28T12:30:04;30.65;;;13.93;;
51828;SDS011;37881;48.024;8.774;2023-02-28T12:32:42;27.25;;;12.52;;
51828;SDS011;37881;48.024;8.774;2023-02-28T12:35:15;39.05;;;13.93;;
51828;SDS011;37881;48.024;8.774;2023-02-28T12:38:01;26.13;;;12.33;;
51828;SDS011;37881;48.024;8.774;2023-02-28T12:40:47;33.45;;;13.65;;
51828;SDS011;37881;48.024;8.774;2023-02-28T12:43:16;24.60;;;12.85;;
51828;SDS011;37881;48.024;8.774;2023-02-28T12:45:46;28.23;;;13.35;;
51828;SDS011;37881;48.024;8.774;2023-02-28T12:48:20;25.92;;;14.15;;
51828;SDS011;37881;48.024;8.774;2023-02-28T12:50:51;24.80;;;12.53;;
51828;SDS011;37881;48.024;8.774;2023-02-28T13:09:09;28.17;;;17.40;;
51828;SDS011;37881;48.024;8.774;2023-02-28T13:11:40;36.58;;;15.20;;
51828;SDS011;37881;48.024;8.774;2023-02-28T13:14:19;28.25;;;14.63;;
51828;SDS011;37881;48.024;8.774;2023-02-28T13:16:54;25.07;;;13.03;;
51828;SDS011;37881;48.024;8.774;2023-02-28T13:19:24;27.80;;;14.32;;
51828;SDS011;37881;48.024;8.774;2023-02-28T13:21:53;31.33;;;14.38;;
51828;SDS011;37881;48.024;8.774;2023-02-28T13:29:31;27.37;;;16.20;;
51828;SDS011;37881;48.024;8.774;2023-02-28T13:37:46;27.52;;;12.48;;
51828;SDS011;37881;48.024;8.774;2023-02-28T13:39:48;30.60;;;13.05;;
51828;SDS011;37881;48.024;8.774;2023-02-28T13:42:23;24.00;;;11.70;;
51828;SDS011;37881;48.024;8.774;2023-02-28T13:55:43;30.50;;;15.17;;
51828;SDS011;37881;48.024;8.774;2023-02-28T14:01:28;28.95;;;14.90;;
51828;SDS011;37881;48.024;8.774;2023-02-28T14:07:09;26.42;;;13.40;;
51828;SDS011;37881;48.024;8.774;2023-02-28T14:09:46;25.30;;;12.40;;
51828;SDS011;37881;48.024;8.774;2023-02-28T14:18:03;25.33;;;13.00;;
51828;SDS011;37881;48.024;8.774;2023-02-28T14:20:40;28.08;;;13.38;;
51828;SDS011;37881;48.024;8.774;2023-02-28T14:26:06;25.23;;;13.73;;
51828;SDS011;37881;48.024;8.774;2023-02-28T14:34:48;22.90;;;13.05;;
51828;SDS011;37881;48.024;8.774;2023-02-28T14:37:33;23.47;;;16.20;;
51828;SDS011;37881;48.024;8.774;2023-02-28T14:40:11;23.27;;;12.93;;
51828;SDS011;37881;48.024;8.774;2023-02-28T14:42:46;29.75;;;13.50;;
51828;SDS011;37881;48.024;8.774;2023-02-28T14:45:20;25.27;;;13.55;;
51828;SDS011;37881;48.024;8.774;2023-02-28T14:47:49;29.77;;;14.15;;
51828;SDS011;37881;48.024;8.774;2023-02-28T14:50:18;22.07;;;13.13;;
51828;SDS011;37881;48.024;8.774;2023-02-28T14:52:54;26.13;;;14.70;;
51828;SDS011;37881;48.024;8.774;2023-02-28T14:55:29;30.92;;;14.98;;
51828;SDS011;37881;48.024;8.774;2023-02-28T14:57:58;28.00;;;15.88;;
51828;SDS011;37881;48.024;8.774;2023-02-28T15:00:33;23.15;;;12.98;;
51828;SDS011;37881;48.024;8.774;2023-02-28T15:03:11;24.97;;;12.57;;
51828;SDS011;37881;48.024;8.774;2023-02-28T15:05:55;22.98;;;13.55;;
51828;SDS011;37881;48.024;8.774;2023-02-28T15:08:24;25.77;;;14.35;;
51828;SDS011;37881;48.024;8.774;2023-02-28T15:10:57;26.45;;;14.05;;
51828;SDS011;37881;48.024;8.774;2023-02-28T15:13:44;24.15;;;13.93;;
51828;SDS011;37881;48.024;8.774;2023-02-28T15:16:14;25.60;;;16.10;;
51828;SDS011;37881;48.024;8.774;2023-02-28T15:18:58;28.85;;;14.88;;
51828;SDS011;37881;48.024;8.774;2023-02-28T15:21:31;29.75;;;17.15;;
51828;SDS011;37881;48.024;8.774;2023-02-28T15:26:34;27.35;;;15.43;;
51828;SDS011;37881;48.024;8.774;2023-02-28T15:29:10;29.23;;;16.03;;
51828;SDS011;37881;48.024;8.774;2023-02-28T15:31:43;32.92;;;16.88;;
51828;SDS011;37881;48.024;8.774;2023-02-28T15:34:27;26.92;;;16.00;;
51828;SDS011;37881;48.024;8.774;2023-02-28T15:39:53;30.25;;;14.45;;
51828;SDS011;37881;48.024;8.774;2023-02-28T15:42:23;33.30;;;17.80;;
51828;SDS011;37881;48.024;8.774;2023-02-28T15:44:57;28.17;;;15.65;;
51828;SDS011;37881;48.024;8.774;2023-02-28T15:47:26;33.92;;;15.40;;
51828;SDS011;37881;48.024;8.774;2023-02-28T15:55:22;26.67;;;14.10;;
51828;SDS011;37881;48.024;8.774;2023-02-28T15:57:53;27.02;;;14.95;;
51828;SDS011;37881;48.024;8.774;2023-02-28T16:00:25;30.00;;;15.07;;
51828;SDS011;37881;48.024;8.774;2023-02-28T16:02:53;32.05;;;16.00;;
51828;SDS011;37881;48.024;8.774;2023-02-28T16:08:00;28.27;;;15.33;;
51828;SDS011;37881;48.024;8.774;2023-02-28T16:10:37;27.88;;;14.63;;
51828;SDS011;37881;48.024;8.774;2023-02-28T16:13:04;35.03;;;17.00;;
51828;SDS011;37881;48.024;8.774;2023-02-28T16:15:33;35.78;;;16.23;;
51828;SDS011;37881;48.024;8.774;2023-02-28T16:18:08;29.05;;;15.40;;
51828;SDS011;37881;48.024;8.774;2023-02-28T16:20:38;37.57;;;16.53;;
51828;SDS011;37881;48.024;8.774;2023-02-28T16:23:04;33.05;;;16.42;;
51828;SDS011;37881;48.024;8.774;2023-02-28T16:28:02;35.97;;;16.40;;
51828;SDS011;37881;48.024;8.774;2023-02-28T16:30:30;30.50;;;16.58;;
51828;SDS011;37881;48.024;8.774;2023-02-28T16:33:00;26.27;;;15.10;;
51828;SDS011;37881;48.024;8.774;2023-02-28T16:35:26;31.33;;;15.57;;
51828;SDS011;37881;48.024;8.774;2023-02-28T16:37:53;30.08;;;15.10;;
51828;SDS011;37881;48.024;8.774;2023-02-28T16:40:24;28.27;;;16.55;;
51828;SDS011;37881;48.024;8.774;2023-02-28T16:42:55;32.45;;;16.05;;
51828;SDS011;37881;48.024;8.774;2023-02-28T16:45:25;29.87;;;14.77;;
51828;SDS011;37881;48.024;8.774;2023-02-28T16:47:55;30.08;;;14.93;;
51828;SDS011;37881;48.024;8.774;2023-02-28T16:50:26;32.17;;;15.80;;
51828;SDS011;37881;48.024;8.774;2023-02-28T16:52:54;36.90;;;15.48;;
51828;SDS011;37881;48.024;8.774;2023-02-28T16:55:22;31.58;;;15.98;;
51828;SDS011;37881;48.024;8.774;2023-02-28T16:57:51;34.00;;;16.47;;
51828;SDS011;37881;48.024;8.774;2023-02-28T17:00:20;33.10;;;16.23;;
51828;SDS011;37881;48.024;8.774;2023-02-28T17:02:47;36.08;;;16.90;;
51828;SDS011;37881;48.024;8.774;2023-02-28T17:05:14;31.92;;;15.68;;
51828;SDS011;37881;48.024;8.774;2023-02-28T17:07:41;31.10;;;15.07;;
51828;SDS011;37881;48.024;8.774;2023-02-28T17:10:32;31.80;;;15.97;;
51828;SDS011;37881;48.024;8.774;2023-02-28T17:12:55;32.25;;;16.42;;
51828;SDS011;37881;48.024;8.774;2023-02-28T17:15:34;35.72;;;18.20;;
51828;SDS011;37881;48.024;8.774;2023-02-28T17:18:03;32.92;;;16.90;;
51828;SDS011;37881;48.024;8.774;2023-02-28T17:20:30;32.03;;;16.30;;
51828;SDS011;37881;48.024;8.774;2023-02-28T17:22:58;28.67;;;14.43;;
51828;SDS011;37881;48.024;8.774;2023-02-28T17:25:24;39.00;;;18.23;;